createdAt,value
2019-04-27T00:00:43.395Z,11.81
2019-04-27T00:01:45.300Z,11.81
2019-04-27T00:02:43.597Z,11.80
2019-04-27T00:03:44.845Z,11.72
2019-04-27T00:04:43.314Z,11.73
2019-04-27T00:05:43.494Z,11.75
2019-04-27T00:06:46.423Z,11.70
2019-04-27T00:07:43.970Z,11.70
2019-04-27T00:08:43.294Z,11.68
2019-04-27T00:09:50.128Z,11.66
2019-04-27T00:10:43.709Z,11.62
2019-04-27T00:11:45.452Z,11.65
2019-04-27T00:12:43.290Z,11.52
2019-04-27T00:13:44.001Z,11.62
2019-04-27T00:14:43.910Z,11.60
2019-04-27T00:15:43.938Z,11.52
2019-04-27T00:16:46.883Z,11.51
2019-04-27T00:17:48.590Z,11.55
2019-04-27T00:18:45.503Z,11.55
2019-04-27T00:19:43.840Z,11.55
2019-04-27T00:20:43.477Z,11.52
2019-04-27T00:21:43.235Z,11.50
2019-04-27T00:22:43.605Z,11.51
2019-04-27T00:23:43.222Z,11.62
2019-04-27T00:24:44.202Z,11.54
2019-04-27T00:25:43.783Z,11.52
2019-04-27T00:26:43.319Z,11.47
2019-04-27T00:27:43.614Z,11.54
2019-04-27T00:28:43.448Z,11.50
2019-04-27T00:29:43.299Z,11.50
2019-04-27T00:30:43.876Z,11.50
2019-04-27T00:31:43.547Z,11.47
2019-04-27T00:32:43.398Z,11.47
2019-04-27T00:33:43.540Z,11.48
2019-04-27T00:34:43.249Z,11.44
2019-04-27T00:35:43.773Z,11.41
2019-04-27T00:36:43.560Z,11.41
2019-04-27T00:37:44.924Z,11.47
2019-04-27T00:38:43.605Z,11.43
2019-04-27T00:39:43.357Z,11.45
2019-04-27T00:40:43.657Z,11.48
2019-04-27T00:41:43.135Z,11.54
2019-04-27T00:42:44.102Z,11.43
2019-04-27T00:43:44.463Z,11.47
2019-04-27T00:44:43.117Z,11.55
2019-04-27T00:45:43.700Z,11.44
2019-04-27T00:46:43.195Z,11.47
2019-04-27T00:47:54.714Z,11.48
2019-04-27T00:48:43.351Z,11.47
2019-04-27T00:49:44.332Z,11.47
2019-04-27T00:50:43.905Z,11.57
2019-04-27T00:51:43.463Z,11.44
2019-04-27T00:52:43.078Z,11.51
2019-04-27T00:53:43.505Z,11.47
2019-04-27T00:54:44.148Z,11.47
2019-04-27T00:55:43.501Z,11.41
2019-04-27T00:56:43.058Z,11.47
2019-04-27T00:57:43.504Z,11.43
2019-04-27T00:58:45.316Z,11.47
2019-04-27T00:59:43.188Z,11.44
2019-04-27T01:00:43.985Z,11.48
2019-04-27T01:01:43.572Z,11.44
2019-04-27T01:02:43.516Z,11.44
2019-04-27T01:03:43.144Z,11.45
2019-04-27T01:04:43.020Z,11.45
2019-04-27T01:05:43.150Z,11.44
2019-04-27T01:06:43.773Z,11.43
2019-04-27T01:07:43.426Z,11.47
2019-04-27T01:08:44.923Z,11.45
2019-04-27T01:09:42.988Z,11.47
2019-04-27T01:10:43.573Z,11.40
2019-04-27T01:11:43.426Z,11.45
2019-04-27T01:12:43.108Z,11.44
2019-04-27T01:13:43.482Z,11.43
2019-04-27T01:14:45.085Z,11.44
2019-04-27T01:15:43.120Z,11.43
2019-04-27T01:16:42.955Z,11.51
2019-04-27T01:17:42.948Z,11.45
2019-04-27T01:18:42.940Z,11.47
2019-04-27T01:19:42.935Z,11.50
2019-04-27T01:20:42.926Z,11.45
2019-04-27T01:21:42.931Z,11.48
2019-04-27T01:22:42.920Z,11.51
2019-04-27T01:23:42.914Z,11.51
2019-04-27T01:24:42.912Z,11.50
2019-04-27T01:25:42.904Z,11.54
2019-04-27T01:26:42.897Z,11.62
2019-04-27T01:27:42.895Z,11.48
2019-04-27T01:28:42.889Z,11.54
2019-04-27T01:29:42.883Z,11.57
2019-04-27T01:30:42.876Z,11.57
2019-04-27T01:31:42.887Z,11.57
2019-04-27T01:32:42.867Z,11.57
2019-04-27T01:33:42.862Z,11.63
2019-04-27T01:34:42.856Z,11.59
2019-04-27T01:35:42.850Z,11.68
2019-04-27T01:36:42.847Z,11.72
2019-04-27T01:37:42.843Z,11.68
2019-04-27T01:38:42.863Z,11.70
2019-04-27T01:39:42.831Z,11.72
2019-04-27T01:40:42.827Z,11.65
2019-04-27T01:41:42.820Z,11.63
2019-04-27T01:42:42.814Z,11.72
2019-04-27T01:43:42.810Z,11.66
2019-04-27T01:44:42.806Z,11.68
2019-04-27T01:45:42.802Z,11.70
2019-04-27T01:46:42.798Z,11.70
2019-04-27T01:47:42.793Z,11.68
2019-04-27T01:48:42.787Z,11.75
2019-04-27T01:49:42.785Z,11.73
2019-04-27T01:50:42.777Z,11.66
2019-04-27T01:51:42.770Z,11.63
2019-04-27T01:52:42.766Z,11.65
2019-04-27T01:53:42.762Z,11.68
2019-04-27T01:54:42.755Z,11.66
2019-04-27T01:55:42.750Z,11.72
2019-04-27T01:56:42.747Z,11.68
2019-04-27T01:57:42.743Z,11.70
2019-04-27T01:58:42.738Z,11.72
2019-04-27T01:59:42.737Z,11.73
2019-04-27T02:00:42.728Z,11.72
2019-04-27T02:01:42.723Z,11.68
2019-04-27T02:02:42.715Z,11.63
2019-04-27T02:03:42.709Z,11.75
2019-04-27T02:04:42.711Z,11.73
2019-04-27T02:05:42.702Z,11.72
2019-04-27T02:06:42.696Z,11.73
2019-04-27T02:07:42.690Z,11.69
2019-04-27T02:08:42.686Z,11.75
2019-04-27T02:09:42.683Z,11.68
2019-04-27T02:10:42.678Z,11.73
2019-04-27T02:11:42.669Z,11.75
2019-04-27T02:12:44.028Z,11.70
2019-04-27T02:13:42.662Z,11.77
2019-04-27T02:14:42.656Z,11.77
2019-04-27T02:15:42.656Z,11.73
2019-04-27T02:16:42.646Z,11.66
2019-04-27T02:17:42.644Z,11.78
2019-04-27T02:18:42.639Z,11.68
2019-04-27T02:19:42.635Z,11.69
2019-04-27T02:20:44.402Z,11.66
2019-04-27T02:21:42.623Z,11.73
2019-04-27T02:22:42.617Z,11.70
2019-04-27T02:23:42.618Z,11.69
2019-04-27T02:24:42.609Z,11.60
2019-04-27T02:25:42.603Z,11.69
2019-04-27T02:26:42.599Z,11.75
2019-04-27T02:27:42.593Z,11.69
2019-04-27T02:28:42.596Z,11.68
2019-04-27T02:29:42.591Z,11.73
2019-04-27T02:30:42.581Z,11.68
2019-04-27T02:31:42.582Z,11.60
2019-04-27T02:32:42.601Z,11.59
2019-04-27T02:33:42.574Z,11.54
2019-04-27T02:34:42.565Z,11.55
2019-04-27T02:35:42.561Z,11.43
2019-04-27T02:36:42.578Z,11.44
2019-04-27T02:37:42.549Z,11.44
2019-04-27T02:38:42.550Z,11.47
2019-04-27T02:39:42.533Z,11.45
2019-04-27T02:40:42.725Z,11.47
2019-04-27T02:41:42.532Z,11.40
2019-04-27T02:42:42.521Z,11.41
2019-04-27T02:43:42.517Z,11.44
2019-04-27T02:44:42.512Z,11.45
2019-04-27T02:45:42.515Z,11.48
2019-04-27T02:46:42.510Z,11.41
2019-04-27T02:47:42.495Z,11.40
2019-04-27T02:48:55.467Z,11.36
2019-04-27T02:49:42.485Z,11.29
2019-04-27T02:50:42.478Z,11.37
2019-04-27T02:51:42.957Z,11.33
2019-04-27T02:52:42.470Z,11.25
2019-04-27T02:53:42.466Z,11.25
2019-04-27T02:54:42.469Z,11.27
2019-04-27T02:55:42.456Z,11.25
2019-04-27T02:56:42.453Z,11.23
2019-04-27T02:57:42.450Z,11.25
2019-04-27T02:58:42.439Z,11.23
2019-04-27T02:59:42.432Z,11.19
2019-04-27T03:00:42.431Z,11.27
2019-04-27T03:01:46.553Z,11.14
2019-04-27T03:02:42.416Z,11.19
2019-04-27T03:03:42.411Z,11.17
2019-04-27T03:04:42.407Z,11.14
2019-04-27T03:05:42.402Z,11.14
2019-04-27T03:06:42.396Z,11.10
2019-04-27T03:07:42.837Z,11.12
2019-04-27T03:08:42.832Z,11.10
2019-04-27T03:09:42.384Z,11.15
2019-04-27T03:10:42.376Z,11.18
2019-04-27T03:11:42.371Z,11.15
2019-04-27T03:12:42.557Z,11.17
2019-04-27T03:13:42.371Z,11.14
2019-04-27T03:14:42.354Z,11.15
2019-04-27T03:15:42.351Z,11.15
2019-04-27T03:16:42.344Z,11.08
2019-04-27T03:17:42.338Z,11.11
2019-04-27T03:18:42.332Z,11.11
2019-04-27T03:19:42.324Z,11.15
2019-04-27T03:20:42.323Z,11.17
2019-04-27T03:21:42.318Z,11.12
2019-04-27T03:22:42.314Z,11.07
2019-04-27T03:23:42.310Z,11.12
2019-04-27T03:24:42.301Z,11.12
2019-04-27T03:25:42.295Z,11.12
2019-04-27T03:26:42.293Z,11.15
2019-04-27T03:27:42.293Z,11.17
2019-04-27T03:28:42.282Z,11.17
2019-04-27T03:29:42.271Z,11.15
2019-04-27T03:30:43.360Z,11.11
2019-04-27T03:31:47.317Z,11.12
2019-04-27T03:32:43.368Z,11.12
2019-04-27T03:33:43.316Z,11.12
2019-04-27T03:34:42.307Z,11.12
2019-04-27T03:35:43.717Z,11.11
2019-04-27T03:36:42.239Z,11.12
2019-04-27T03:37:42.239Z,11.15
2019-04-27T03:38:42.223Z,11.11
2019-04-27T03:39:42.220Z,11.22
2019-04-27T03:40:42.215Z,11.26
2019-04-27T03:41:42.212Z,11.17
2019-04-27T03:42:42.206Z,11.15
2019-04-27T03:43:42.200Z,11.17
2019-04-27T03:44:42.196Z,11.19
2019-04-27T03:45:42.190Z,11.17
2019-04-27T03:46:42.186Z,11.26
2019-04-27T03:47:42.176Z,11.19
2019-04-27T03:48:42.174Z,11.19
2019-04-27T03:49:42.175Z,11.12
2019-04-27T03:50:42.964Z,11.22
2019-04-27T03:51:42.159Z,11.12
2019-04-27T03:52:42.154Z,11.12
2019-04-27T03:53:42.156Z,11.14
2019-04-27T03:54:42.143Z,11.12
2019-04-27T03:55:42.710Z,11.11
2019-04-27T03:56:42.131Z,11.12
2019-04-27T03:57:42.130Z,11.12
2019-04-27T03:58:42.123Z,11.14
2019-04-27T03:59:42.117Z,11.08
2019-04-27T04:00:42.121Z,11.14
2019-04-27T04:01:42.106Z,11.12
2019-04-27T04:02:42.118Z,11.07
2019-04-27T04:03:42.096Z,11.08
2019-04-27T04:04:42.089Z,11.05
2019-04-27T04:05:42.095Z,11.07
2019-04-27T04:06:42.088Z,11.07
2019-04-27T04:07:42.077Z,11.07
2019-04-27T04:08:42.069Z,11.08
2019-04-27T04:09:42.069Z,11.05
2019-04-27T04:10:42.062Z,11.07
2019-04-27T04:11:42.058Z,11.04
2019-04-27T04:12:42.049Z,11.10
2019-04-27T04:13:42.052Z,11.00
2019-04-27T04:14:42.927Z,11.05
2019-04-27T04:15:42.034Z,11.08
2019-04-27T04:16:42.030Z,11.04
2019-04-27T04:17:42.027Z,11.04
2019-04-27T04:18:42.018Z,11.08
2019-04-27T04:19:53.960Z,11.04
2019-04-27T04:20:42.009Z,11.07
2019-04-27T04:21:42.005Z,11.07
2019-04-27T04:22:41.998Z,11.07
2019-04-27T04:23:41.993Z,11.04
2019-04-27T04:24:41.987Z,11.08
2019-04-27T04:25:41.983Z,11.07
2019-04-27T04:26:41.978Z,10.94
2019-04-27T04:27:42.761Z,11.05
2019-04-27T04:28:41.967Z,10.97
2019-04-27T04:29:41.965Z,10.97
2019-04-27T04:30:41.957Z,11.05
2019-04-27T04:31:41.954Z,11.05
2019-04-27T04:32:41.950Z,11.10
2019-04-27T04:33:41.941Z,11.07
2019-04-27T04:34:41.940Z,11.11
2019-04-27T04:35:41.939Z,11.15
2019-04-27T04:36:42.540Z,11.12
2019-04-27T04:37:41.924Z,11.12
2019-04-27T04:38:41.913Z,11.15
2019-04-27T04:39:41.909Z,11.17
2019-04-27T04:40:41.916Z,11.19
2019-04-27T04:41:43.587Z,11.17
2019-04-27T04:42:41.896Z,11.29
2019-04-27T04:43:41.895Z,11.30
2019-04-27T04:44:41.886Z,11.27
2019-04-27T04:45:41.880Z,11.26
2019-04-27T04:46:41.874Z,11.36
2019-04-27T04:47:41.866Z,11.33
2019-04-27T04:48:41.864Z,11.29
2019-04-27T04:49:41.855Z,11.35
2019-04-27T04:50:41.851Z,11.33
2019-04-27T04:51:41.850Z,11.36
2019-04-27T04:52:42.422Z,11.35
2019-04-27T04:53:41.837Z,11.32
2019-04-27T04:54:41.837Z,11.37
2019-04-27T04:55:41.826Z,11.41
2019-04-27T04:56:41.826Z,11.36
2019-04-27T04:57:41.817Z,11.37
2019-04-27T04:58:41.817Z,11.40
2019-04-27T04:59:43.761Z,11.36
2019-04-27T05:00:41.803Z,11.41
2019-04-27T05:01:41.797Z,11.48
2019-04-27T05:02:41.791Z,11.36
2019-04-27T05:03:41.788Z,11.45
2019-04-27T05:04:41.781Z,11.48
2019-04-27T05:05:41.782Z,11.54
2019-04-27T05:06:41.770Z,11.57
2019-04-27T05:07:41.767Z,11.47
2019-04-27T05:08:41.762Z,11.52
2019-04-27T05:09:41.765Z,11.52
2019-04-27T05:10:41.751Z,11.55
2019-04-27T05:11:41.749Z,11.57
2019-04-27T05:12:41.741Z,11.52
2019-04-27T05:13:41.735Z,11.63
2019-04-27T05:14:41.740Z,11.62
2019-04-27T05:15:41.725Z,11.63
2019-04-27T05:16:41.723Z,11.68
2019-04-27T05:17:41.719Z,11.72
2019-04-27T05:18:41.715Z,11.66
2019-04-27T05:19:41.711Z,11.70
2019-04-27T05:20:41.707Z,11.69
2019-04-27T05:21:41.704Z,11.75
2019-04-27T05:22:41.692Z,11.72
2019-04-27T05:23:41.687Z,11.70
2019-04-27T05:24:41.685Z,11.81
2019-04-27T05:25:41.679Z,11.72
2019-04-27T05:26:41.677Z,11.69
2019-04-27T05:27:41.676Z,11.86
2019-04-27T05:28:41.668Z,11.95
2019-04-27T05:29:41.663Z,12.00
2019-04-27T05:30:41.659Z,11.95
2019-04-27T05:31:41.653Z,12.04
2019-04-27T05:32:41.648Z,12.04
2019-04-27T05:33:41.644Z,12.04
2019-04-27T05:34:41.637Z,12.10
2019-04-27T05:35:41.632Z,12.04
2019-04-27T05:36:48.347Z,12.07
2019-04-27T05:37:44.336Z,12.03
2019-04-27T05:38:46.033Z,12.07
2019-04-27T05:39:41.613Z,12.09
2019-04-27T05:40:41.612Z,12.06
2019-04-27T05:41:41.843Z,12.02
2019-04-27T05:42:41.603Z,12.06
2019-04-27T05:43:41.596Z,12.13
2019-04-27T05:44:45.721Z,12.17
2019-04-27T05:45:41.590Z,12.20
2019-04-27T05:46:41.580Z,12.17
2019-04-27T05:47:43.284Z,12.31
2019-04-27T05:48:41.573Z,12.31
2019-04-27T05:49:44.418Z,12.36
2019-04-27T05:50:45.635Z,12.32
2019-04-27T05:51:42.076Z,12.45
2019-04-27T05:52:41.558Z,12.42
2019-04-27T05:53:41.553Z,12.42
2019-04-27T05:54:41.547Z,12.37
2019-04-27T05:55:41.542Z,12.55
2019-04-27T05:56:41.538Z,12.54
2019-04-27T05:57:41.534Z,12.54
2019-04-27T05:58:41.528Z,12.65
2019-04-27T05:59:41.521Z,12.58
2019-04-27T06:00:41.522Z,12.62
2019-04-27T06:01:41.517Z,12.64
2019-04-27T06:02:41.516Z,12.70
2019-04-27T06:03:41.499Z,12.60
2019-04-27T06:04:41.502Z,12.61
2019-04-27T06:05:41.497Z,12.72
2019-04-27T06:06:41.500Z,12.82
2019-04-27T06:07:41.487Z,12.76
2019-04-27T06:08:41.486Z,12.65
2019-04-27T06:09:41.489Z,12.75
2019-04-27T06:10:41.475Z,12.76
2019-04-27T06:11:41.479Z,12.78
2019-04-27T06:12:41.466Z,12.80
2019-04-27T06:13:41.469Z,12.82
2019-04-27T06:14:41.461Z,12.82
2019-04-27T06:15:41.456Z,12.83
2019-04-27T06:16:41.457Z,12.75
2019-04-27T06:17:41.447Z,12.85
2019-04-27T06:18:41.445Z,12.79
2019-04-27T06:19:43.794Z,12.98
2019-04-27T06:20:51.296Z,12.83
2019-04-27T06:21:41.431Z,12.94
2019-04-27T06:22:41.427Z,13.01
2019-04-27T06:23:41.422Z,13.03
2019-04-27T06:24:41.418Z,13.03
2019-04-27T06:25:41.417Z,13.13
2019-04-27T06:26:41.413Z,13.13
2019-04-27T06:27:41.407Z,13.22
2019-04-27T06:28:41.402Z,13.23
2019-04-27T06:29:41.399Z,13.22
2019-04-27T06:30:41.394Z,13.22
2019-04-27T06:31:41.392Z,13.20
2019-04-27T06:32:41.387Z,13.37
2019-04-27T06:33:41.384Z,13.46
2019-04-27T06:34:41.382Z,13.54
2019-04-27T06:35:41.375Z,13.67
2019-04-27T06:36:41.378Z,13.72
2019-04-27T06:37:41.370Z,13.68
2019-04-27T06:38:41.364Z,13.65
2019-04-27T06:39:41.362Z,13.87
2019-04-27T06:40:41.358Z,13.95
2019-04-27T06:41:41.354Z,14.05
2019-04-27T06:42:41.348Z,14.08
2019-04-27T06:43:41.346Z,14.12
2019-04-27T06:44:41.342Z,14.20
2019-04-27T06:45:41.339Z,14.26
2019-04-27T06:46:41.338Z,14.30
2019-04-27T06:47:41.524Z,14.41
2019-04-27T06:48:41.327Z,14.51
2019-04-27T06:49:41.331Z,14.54
2019-04-27T06:50:41.326Z,14.50
2019-04-27T06:51:41.320Z,14.63
2019-04-27T06:52:41.316Z,14.53
2019-04-27T06:53:41.312Z,14.41
2019-04-27T06:54:41.307Z,14.37
2019-04-27T06:55:41.308Z,14.41
2019-04-27T06:56:41.305Z,14.18
2019-04-27T06:57:41.366Z,14.33
2019-04-27T06:58:41.296Z,14.18
2019-04-27T06:59:41.295Z,14.22
2019-04-27T07:00:41.292Z,14.35
2019-04-27T07:01:41.288Z,14.37
2019-04-27T07:02:41.283Z,14.37
2019-04-27T07:03:41.287Z,14.54
2019-04-27T07:04:41.277Z,14.72
2019-04-27T07:05:41.275Z,14.70
2019-04-27T07:06:52.555Z,14.69
2019-04-27T07:07:41.266Z,14.73
2019-04-27T07:08:41.264Z,14.73
2019-04-27T07:09:41.262Z,14.79
2019-04-27T07:10:41.261Z,14.77
2019-04-27T07:11:41.251Z,14.69
2019-04-27T07:12:41.308Z,14.82
2019-04-27T07:13:41.250Z,14.70
2019-04-27T07:14:52.361Z,14.94
2019-04-27T07:15:41.244Z,14.82
2019-04-27T07:16:41.246Z,14.81
2019-04-27T07:17:41.242Z,14.89
2019-04-27T07:18:41.236Z,14.86
2019-04-27T07:19:41.235Z,14.86
2019-04-27T07:20:41.235Z,14.78
2019-04-27T07:21:41.227Z,14.78
2019-04-27T07:22:41.228Z,14.72
2019-04-27T07:23:41.225Z,14.85
2019-04-27T07:24:41.222Z,14.85
2019-04-27T07:25:41.218Z,14.92
2019-04-27T07:26:41.214Z,14.94
2019-04-27T07:27:41.214Z,14.89
2019-04-27T07:28:41.211Z,14.91
2019-04-27T07:29:44.719Z,14.72
2019-04-27T07:30:41.201Z,14.89
2019-04-27T07:31:41.203Z,15.02
2019-04-27T07:32:41.209Z,15.11
2019-04-27T07:33:41.198Z,15.31
2019-04-27T07:34:41.195Z,15.39
2019-04-27T07:35:41.191Z,15.62
2019-04-27T07:36:41.194Z,15.83
2019-04-27T07:37:41.190Z,15.79
2019-04-27T07:38:41.184Z,15.67
2019-04-27T07:39:41.182Z,15.67
2019-04-27T07:40:42.043Z,15.82
2019-04-27T07:41:41.180Z,15.90
2019-04-27T07:42:41.430Z,16.16
2019-04-27T07:43:41.175Z,16.36
2019-04-27T07:44:41.171Z,16.49
2019-04-27T07:45:41.171Z,16.54
2019-04-27T07:46:41.168Z,16.72
2019-04-27T07:47:41.171Z,16.91
2019-04-27T07:48:41.164Z,16.99
2019-04-27T07:49:41.163Z,16.87
2019-04-27T07:50:41.162Z,16.86
2019-04-27T07:51:41.159Z,16.83
2019-04-27T07:52:41.173Z,16.76
2019-04-27T07:53:41.156Z,16.76
2019-04-27T07:54:41.167Z,16.81
2019-04-27T07:55:41.149Z,16.94
2019-04-27T07:56:41.151Z,17.09
2019-04-27T07:57:41.161Z,16.89
2019-04-27T07:58:41.151Z,16.94
2019-04-27T07:59:42.071Z,17.08
2019-04-27T08:00:41.146Z,17.12
2019-04-27T08:01:41.142Z,17.16
2019-04-27T08:02:41.144Z,16.99
2019-04-27T08:03:41.143Z,16.99
2019-04-27T08:04:41.145Z,16.93
2019-04-27T08:05:41.141Z,16.78
2019-04-27T08:06:41.135Z,16.87
2019-04-27T08:07:41.139Z,16.94
2019-04-27T08:08:41.134Z,16.94
2019-04-27T08:09:41.132Z,16.96
2019-04-27T08:10:41.135Z,16.94
2019-04-27T08:11:41.164Z,17.09
2019-04-27T08:12:41.132Z,16.78
2019-04-27T08:13:41.128Z,16.75
2019-04-27T08:14:41.126Z,16.69
2019-04-27T08:15:41.130Z,16.75
2019-04-27T08:16:41.122Z,16.78
2019-04-27T08:17:42.907Z,16.69
2019-04-27T08:18:41.122Z,16.64
2019-04-27T08:19:41.120Z,16.58
2019-04-27T08:20:41.117Z,16.61
2019-04-27T08:21:44.358Z,16.50
2019-04-27T08:22:41.118Z,16.39
2019-04-27T08:23:41.121Z,16.39
2019-04-27T08:24:41.117Z,16.43
2019-04-27T08:25:41.107Z,16.24
2019-04-27T08:26:41.109Z,16.31
2019-04-27T08:27:41.112Z,16.26
2019-04-27T08:28:41.108Z,16.20
2019-04-27T08:29:41.103Z,16.01
2019-04-27T08:30:41.106Z,15.86
2019-04-27T08:31:41.106Z,15.75
2019-04-27T08:32:41.506Z,15.90
2019-04-27T08:33:41.103Z,15.92
2019-04-27T08:34:41.105Z,15.95
2019-04-27T08:35:41.122Z,16.05
2019-04-27T08:36:41.103Z,16.09
2019-04-27T08:37:41.099Z,16.17
2019-04-27T08:38:41.093Z,16.29
2019-04-27T08:39:41.100Z,16.29
2019-04-27T08:40:41.091Z,16.38
2019-04-27T08:41:41.088Z,16.43
2019-04-27T08:42:41.086Z,16.42
2019-04-27T08:43:41.087Z,16.53
2019-04-27T08:44:41.088Z,16.54
2019-04-27T08:45:41.087Z,16.72
2019-04-27T08:46:41.079Z,17.04
2019-04-27T08:47:41.792Z,17.16
2019-04-27T08:48:41.080Z,17.26
2019-04-27T08:49:41.077Z,17.54
2019-04-27T08:50:42.151Z,17.48
2019-04-27T08:51:41.527Z,17.65
2019-04-27T08:52:41.878Z,17.80
2019-04-27T08:53:41.073Z,18.03
2019-04-27T08:54:41.069Z,17.78
2019-04-27T08:55:41.072Z,17.80
2019-04-27T08:56:41.066Z,17.82
2019-04-27T08:57:41.068Z,17.76
2019-04-27T08:58:41.072Z,17.76
2019-04-27T08:59:41.065Z,17.78
2019-04-27T09:00:41.065Z,17.79
2019-04-27T09:01:41.067Z,17.57
2019-04-27T09:02:46.865Z,17.39
2019-04-27T09:03:41.062Z,17.41
2019-04-27T09:04:41.065Z,17.46
2019-04-27T09:05:41.066Z,17.63
2019-04-27T09:06:41.060Z,17.67
2019-04-27T09:07:41.060Z,17.72
2019-04-27T09:08:41.410Z,17.89
2019-04-27T09:09:41.057Z,18.18
2019-04-27T09:10:41.055Z,18.35
2019-04-27T09:11:41.055Z,18.41
2019-04-27T09:12:41.564Z,18.22
2019-04-27T09:13:41.263Z,18.03
2019-04-27T09:14:41.052Z,17.87
2019-04-27T09:15:41.055Z,17.71
2019-04-27T09:16:41.052Z,17.68
2019-04-27T09:17:41.052Z,17.70
2019-04-27T09:18:41.180Z,17.79
2019-04-27T09:19:41.051Z,18.16
2019-04-27T09:20:41.050Z,18.28
2019-04-27T09:21:41.050Z,18.47
2019-04-27T09:22:41.050Z,18.58
2019-04-27T09:23:41.047Z,18.56
2019-04-27T09:24:41.047Z,18.62
2019-04-27T09:25:41.047Z,18.73
2019-04-27T09:26:41.049Z,18.78
2019-04-27T09:27:41.047Z,18.65
2019-04-27T09:28:41.049Z,18.53
2019-04-27T09:29:41.055Z,18.34
2019-04-27T09:30:41.046Z,18.44
2019-04-27T09:31:41.042Z,18.26
2019-04-27T09:32:41.038Z,18.29
2019-04-27T09:33:41.044Z,18.15
2019-04-27T09:34:41.042Z,18.10
2019-04-27T09:35:41.046Z,18.23
2019-04-27T09:36:41.041Z,18.33
2019-04-27T09:37:41.040Z,18.29
2019-04-27T09:38:41.041Z,18.19
2019-04-27T09:39:41.041Z,18.16
2019-04-27T09:40:41.039Z,18.01
2019-04-27T09:41:41.040Z,17.83
2019-04-27T09:42:41.041Z,17.87
2019-04-27T09:43:41.040Z,18.07
2019-04-27T09:44:41.039Z,18.11
2019-04-27T09:45:41.038Z,17.94
2019-04-27T09:46:41.043Z,17.90
2019-04-27T09:47:41.041Z,18.04
2019-04-27T09:48:41.035Z,18.13
2019-04-27T09:49:41.036Z,18.25
2019-04-27T09:50:41.037Z,18.58
2019-04-27T09:51:41.036Z,18.73
2019-04-27T09:52:41.037Z,18.53
2019-04-27T09:53:41.033Z,18.40
2019-04-27T09:54:41.031Z,18.58
2019-04-27T09:55:41.031Z,18.50
2019-04-27T09:56:41.032Z,18.65
2019-04-27T09:57:41.036Z,18.66
2019-04-27T09:58:41.031Z,18.68
2019-04-27T09:59:41.031Z,18.58
2019-04-27T10:00:41.031Z,18.75
2019-04-27T10:01:41.034Z,18.73
2019-04-27T10:02:41.030Z,18.73
2019-04-27T10:03:41.029Z,18.60
2019-04-27T10:04:41.023Z,18.45
2019-04-27T10:05:41.035Z,18.38
2019-04-27T10:06:41.026Z,18.40
2019-04-27T10:07:41.072Z,18.40
2019-04-27T10:08:41.028Z,18.59
2019-04-27T10:09:41.025Z,18.74
2019-04-27T10:10:41.026Z,18.86
2019-04-27T10:11:41.025Z,19.14
2019-04-27T10:12:41.030Z,19.40
2019-04-27T10:13:41.028Z,19.47
2019-04-27T10:14:41.037Z,19.39
2019-04-27T10:15:41.055Z,19.34
2019-04-27T10:16:41.025Z,19.24
2019-04-27T10:17:41.031Z,19.14
2019-04-27T10:18:41.025Z,19.02
2019-04-27T10:19:41.025Z,19.21
2019-04-27T10:20:41.194Z,19.29
2019-04-27T10:21:41.028Z,19.40
2019-04-27T10:22:43.463Z,19.49
2019-04-27T10:23:41.024Z,19.59
2019-04-27T10:24:41.028Z,19.73
2019-04-27T10:25:41.027Z,19.58
2019-04-27T10:26:43.729Z,19.67
2019-04-27T10:27:41.027Z,19.41
2019-04-27T10:28:41.024Z,19.36
2019-04-27T10:29:41.026Z,19.24
2019-04-27T10:30:41.029Z,19.30
2019-04-27T10:31:41.028Z,19.48
2019-04-27T10:32:42.835Z,19.22
2019-04-27T10:33:41.025Z,19.31
2019-04-27T10:34:41.027Z,19.30
2019-04-27T10:35:41.026Z,19.37
2019-04-27T10:36:41.031Z,19.41
2019-04-27T10:37:41.027Z,19.40
2019-04-27T10:38:41.027Z,19.55
2019-04-27T10:39:41.028Z,19.74
2019-04-27T10:40:41.029Z,20.03
2019-04-27T10:41:41.029Z,20.19
2019-04-27T10:42:41.030Z,20.22
2019-04-27T10:43:41.028Z,20.39
2019-04-27T10:44:41.026Z,20.47
2019-04-27T10:45:41.031Z,20.51
2019-04-27T10:46:41.029Z,20.66
2019-04-27T10:47:41.031Z,20.69
2019-04-27T10:48:41.032Z,20.66
2019-04-27T10:49:41.031Z,20.75
2019-04-27T10:50:41.031Z,20.59
2019-04-27T10:51:41.032Z,20.26
2019-04-27T10:52:52.845Z,20.07
2019-04-27T10:53:41.036Z,20.02
2019-04-27T10:54:41.036Z,19.96
2019-04-27T10:55:41.037Z,20.02
2019-04-27T10:56:41.037Z,20.07
2019-04-27T10:57:41.037Z,20.19
2019-04-27T10:58:41.053Z,20.50
2019-04-27T10:59:41.079Z,20.31
2019-04-27T11:00:41.037Z,20.47
2019-04-27T11:01:41.041Z,20.48
2019-04-27T11:02:41.038Z,20.48
2019-04-27T11:03:41.042Z,20.39
2019-04-27T11:04:41.041Z,20.24
2019-04-27T11:05:41.050Z,20.25
2019-04-27T11:06:41.042Z,20.37
2019-04-27T11:07:41.045Z,20.39
2019-04-27T11:08:41.045Z,20.36
2019-04-27T11:09:41.049Z,20.39
2019-04-27T11:10:41.044Z,20.13
2019-04-27T11:11:41.050Z,20.34
2019-04-27T11:12:41.049Z,20.50
2019-04-27T11:13:41.049Z,20.50
2019-04-27T11:14:41.053Z,20.41
2019-04-27T11:15:41.052Z,20.19
2019-04-27T11:16:41.055Z,20.13
2019-04-27T11:17:41.053Z,20.26
2019-04-27T11:18:41.059Z,20.25
2019-04-27T11:19:41.053Z,20.34
2019-04-27T11:20:41.055Z,20.48
2019-04-27T11:21:41.061Z,20.31
2019-04-27T11:22:41.056Z,20.50
2019-04-27T11:23:41.064Z,20.21
2019-04-27T11:24:41.060Z,20.41
2019-04-27T11:25:41.058Z,20.59
2019-04-27T11:26:41.059Z,20.75
2019-04-27T11:27:41.061Z,21.17
2019-04-27T11:28:42.710Z,21.14
2019-04-27T11:29:41.063Z,21.30
2019-04-27T11:30:41.065Z,21.37
2019-04-27T11:31:41.065Z,21.30
2019-04-27T11:32:41.075Z,21.32
2019-04-27T11:33:41.069Z,20.51
2019-04-27T11:34:41.071Z,20.52
2019-04-27T11:35:41.068Z,20.52
2019-04-27T11:36:41.070Z,20.52
2019-04-27T11:37:41.072Z,20.59
2019-04-27T11:38:41.070Z,20.40
2019-04-27T11:39:41.075Z,20.47
2019-04-27T11:40:41.072Z,20.65
2019-04-27T11:41:41.075Z,20.59
2019-04-27T11:42:41.074Z,20.48
2019-04-27T11:43:41.077Z,20.59
2019-04-27T11:44:41.080Z,20.19
2019-04-27T11:45:41.080Z,20.16
2019-04-27T11:46:41.080Z,20.11
2019-04-27T11:47:41.081Z,20.34
2019-04-27T11:48:41.082Z,20.21
2019-04-27T11:49:41.083Z,20.55
2019-04-27T11:50:41.085Z,20.44
2019-04-27T11:51:41.084Z,20.40
2019-04-27T11:52:41.085Z,20.16
2019-04-27T11:53:41.084Z,20.21
2019-04-27T11:54:41.108Z,20.07
2019-04-27T11:55:41.085Z,20.16
2019-04-27T11:56:41.089Z,20.19
2019-04-27T11:57:41.093Z,20.14
2019-04-27T11:58:41.090Z,20.21
2019-04-27T11:59:41.090Z,20.24
2019-04-27T12:00:41.094Z,20.43
2019-04-27T12:01:41.096Z,20.13
2019-04-27T12:02:41.089Z,20.25
2019-04-27T12:03:41.095Z,20.26
2019-04-27T12:04:41.097Z,20.32
2019-04-27T12:05:41.119Z,20.37
2019-04-27T12:06:41.096Z,20.24
2019-04-27T12:07:41.096Z,20.25
2019-04-27T12:08:41.097Z,20.36
2019-04-27T12:09:41.101Z,20.39
2019-04-27T12:10:41.097Z,20.39
2019-04-27T12:11:41.096Z,20.47
2019-04-27T12:12:41.100Z,20.47
2019-04-27T12:13:41.101Z,20.29
2019-04-27T12:14:41.103Z,20.22
2019-04-27T12:15:41.101Z,20.22
2019-04-27T12:16:41.106Z,20.25
2019-04-27T12:17:41.112Z,20.24
2019-04-27T12:18:41.106Z,20.21
2019-04-27T12:19:41.104Z,20.32
2019-04-27T12:20:41.107Z,20.26
2019-04-27T12:21:41.116Z,20.13
2019-04-27T12:22:41.103Z,20.02
2019-04-27T12:23:41.400Z,19.79
2019-04-27T12:24:41.106Z,19.48
2019-04-27T12:25:41.109Z,19.39
2019-04-27T12:26:41.134Z,19.39
2019-04-27T12:27:41.110Z,19.29
2019-04-27T12:28:41.108Z,19.47
2019-04-27T12:29:41.110Z,19.54
2019-04-27T12:30:41.113Z,19.69
2019-04-27T12:31:43.815Z,19.94
2019-04-27T12:32:41.109Z,19.88
2019-04-27T12:33:41.112Z,19.84
2019-04-27T12:34:41.112Z,19.88
2019-04-27T12:35:41.112Z,19.85
2019-04-27T12:36:41.113Z,19.77
2019-04-27T12:37:41.114Z,19.76
2019-04-27T12:38:41.109Z,19.64
2019-04-27T12:39:41.114Z,19.62
2019-04-27T12:40:41.118Z,19.66
2019-04-27T12:41:41.112Z,19.73
2019-04-27T12:42:41.115Z,19.70
2019-04-27T12:43:41.116Z,19.77
2019-04-27T12:44:42.448Z,19.77
2019-04-27T12:45:43.626Z,19.81
2019-04-27T12:46:41.115Z,19.95
2019-04-27T12:47:41.115Z,19.91
2019-04-27T12:48:41.118Z,20.07
2019-04-27T12:49:41.117Z,20.21
2019-04-27T12:50:41.116Z,20.26
2019-04-27T12:51:41.116Z,20.25
2019-04-27T12:52:41.120Z,20.37